createdAt,value
2022-12-10T00:01:37.722Z,8.81
2022-12-10T00:04:05.493Z,8.86
2022-12-10T00:06:35.512Z,8.89
2022-12-10T00:09:05.146Z,8.89
2022-12-10T00:11:33.164Z,8.89
2022-12-10T00:14:01.082Z,8.81
2022-12-10T00:16:31.554Z,8.80
2022-12-10T00:18:59.314Z,8.76
2022-12-10T00:21:30.113Z,8.79
2022-12-10T00:23:58.468Z,8.79
2022-12-10T00:26:28.710Z,8.85
2022-12-10T00:28:59.673Z,8.94
2022-12-10T00:31:30.120Z,9.10
2022-12-10T00:33:59.507Z,9.17
2022-12-10T00:36:33.084Z,9.19
2022-12-10T00:39:01.270Z,9.21
2022-12-10T00:41:29.654Z,9.30
2022-12-10T00:43:57.248Z,9.37
2022-12-10T00:46:25.110Z,9.31
2022-12-10T00:48:52.795Z,9.30
2022-12-10T00:51:23.115Z,9.32
2022-12-10T00:53:52.218Z,9.39
2022-12-10T00:56:23.214Z,9.46
2022-12-10T00:58:51.297Z,9.55
2022-12-10T01:01:36.944Z,9.60
2022-12-10T01:04:11.077Z,9.62
2022-12-10T01:06:44.990Z,9.60
2022-12-10T01:09:15.901Z,9.63
2022-12-10T01:11:45.467Z,9.63
2022-12-10T01:14:18.411Z,9.62
2022-12-10T01:16:49.882Z,9.62
2022-12-10T01:19:17.946Z,9.66
2022-12-10T01:21:45.540Z,9.51
2022-12-10T01:24:13.008Z,9.48
2022-12-10T01:26:40.721Z,9.35
2022-12-10T01:29:08.214Z,9.26
2022-12-10T01:31:37.906Z,9.24
2022-12-10T01:34:08.978Z,9.31
2022-12-10T01:36:42.476Z,9.35
2022-12-10T01:39:15.107Z,9.31
2022-12-10T01:41:49.115Z,9.29
2022-12-10T01:44:18.027Z,9.31
2022-12-10T01:46:48.092Z,9.48
2022-12-10T01:49:34.005Z,9.42
2022-12-10T01:52:02.320Z,9.47
2022-12-10T01:54:34.192Z,9.47
2022-12-10T01:57:08.999Z,9.43
2022-12-10T01:59:37.995Z,9.36
2022-12-10T02:02:17.763Z,9.36
2022-12-10T02:05:06.494Z,9.39
2022-12-10T02:08:04.288Z,9.39
2022-12-10T02:10:47.018Z,9.36
2022-12-10T02:13:24.717Z,9.25
2022-12-10T02:15:57.274Z,9.15
2022-12-10T02:18:43.182Z,9.12
2022-12-10T02:21:18.259Z,9.08
2022-12-10T02:23:55.078Z,9.08
2022-12-10T02:26:57.042Z,9.09
2022-12-10T02:29:29.974Z,9.10
2022-12-10T02:32:07.649Z,9.11
2022-12-10T02:34:41.519Z,9.14
2022-12-10T02:37:16.403Z,9.17
2022-12-10T02:39:50.655Z,9.18
2022-12-10T02:42:20.274Z,9.24
2022-12-10T02:44:49.709Z,9.18
2022-12-10T02:47:20.117Z,9.18
2022-12-10T02:49:50.948Z,9.16
2022-12-10T02:52:20.801Z,9.17
2022-12-10T02:54:52.245Z,9.22
2022-12-10T02:57:40.371Z,9.24
2022-12-10T03:00:13.552Z,9.35
2022-12-10T03:03:01.096Z,9.40
2022-12-10T03:05:39.543Z,9.45
2022-12-10T03:08:12.910Z,9.53
2022-12-10T03:10:51.708Z,9.58
2022-12-10T03:13:22.960Z,9.61
2022-12-10T03:15:54.508Z,9.62
2022-12-10T03:18:26.078Z,9.69
2022-12-10T03:20:56.907Z,9.73
2022-12-10T03:23:24.736Z,9.74
2022-12-10T03:25:52.180Z,9.73
2022-12-10T03:28:23.166Z,9.77
2022-12-10T03:30:52.875Z,9.77
2022-12-10T03:33:20.741Z,9.75
2022-12-10T03:35:48.894Z,9.73
2022-12-10T03:38:17.147Z,9.74
2022-12-10T03:40:44.642Z,9.75
2022-12-10T03:43:14.636Z,9.74
2022-12-10T03:45:42.542Z,9.73
2022-12-10T03:48:10.019Z,9.70
2022-12-10T03:50:37.459Z,9.71
2022-12-10T03:53:05.225Z,9.68
2022-12-10T03:55:33.953Z,9.64
2022-12-10T03:58:01.411Z,9.65
2022-12-10T04:00:29.101Z,9.62
2022-12-10T04:02:56.858Z,9.60
2022-12-10T04:05:24.331Z,9.52
2022-12-10T04:07:51.894Z,9.50
2022-12-10T04:10:19.614Z,9.44
2022-12-10T04:13:07.013Z,9.39
2022-12-10T04:15:53.550Z,9.33
2022-12-10T04:18:21.007Z,9.35
2022-12-10T04:21:11.964Z,9.33
2022-12-10T04:23:58.209Z,9.31
2022-12-10T04:26:44.492Z,9.28
2022-12-10T04:29:12.282Z,9.21
2022-12-10T04:31:39.992Z,9.15
2022-12-10T04:34:07.391Z,9.18
2022-12-10T04:36:34.810Z,9.15
2022-12-10T04:39:02.569Z,9.16
2022-12-10T04:41:30.025Z,9.13
2022-12-10T04:43:57.490Z,9.14
2022-12-10T04:46:25.400Z,9.11
2022-12-10T04:48:52.860Z,9.08
2022-12-10T04:51:20.347Z,9.04
2022-12-10T04:53:48.075Z,8.92
2022-12-10T04:56:15.515Z,8.89
2022-12-10T04:58:43.204Z,8.85
2022-12-10T05:01:13.816Z,8.74
2022-12-10T05:03:41.802Z,8.71
2022-12-10T05:06:12.397Z,8.71
2022-12-10T05:08:41.444Z,8.74
2022-12-10T05:11:13.652Z,8.73
2022-12-10T05:13:41.656Z,8.67
2022-12-10T05:16:12.336Z,8.67
2022-12-10T05:18:40.188Z,8.61
2022-12-10T05:21:11.720Z,8.62
2022-12-10T05:23:42.162Z,8.60
2022-12-10T05:26:11.282Z,8.56
2022-12-10T05:28:41.263Z,8.54
2022-12-10T05:31:18.152Z,8.47
2022-12-10T05:33:46.694Z,8.50
2022-12-10T05:36:17.233Z,8.47
2022-12-10T05:38:45.951Z,8.42
2022-12-10T05:41:17.032Z,8.45
2022-12-10T05:43:45.194Z,8.38
2022-12-10T05:46:15.271Z,8.40
2022-12-10T05:48:43.041Z,8.44
2022-12-10T05:51:19.601Z,8.46
2022-12-10T05:53:47.643Z,8.50
2022-12-10T05:56:19.317Z,8.48
2022-12-10T05:58:49.362Z,8.50
2022-12-10T06:01:19.995Z,8.47
2022-12-10T06:03:48.399Z,8.48
2022-12-10T06:06:22.328Z,8.48
2022-12-10T06:08:50.682Z,8.49
2022-12-10T06:11:18.767Z,8.45
2022-12-10T06:13:46.240Z,8.46
2022-12-10T06:16:15.375Z,8.44
2022-12-10T06:18:43.579Z,8.39
2022-12-10T06:21:14.432Z,8.41
2022-12-10T06:23:43.247Z,8.42
2022-12-10T06:26:14.403Z,8.39
2022-12-10T06:28:44.817Z,8.31
2022-12-10T06:31:12.653Z,8.27
2022-12-10T06:33:42.093Z,8.21
2022-12-10T06:36:11.786Z,8.09
2022-12-10T06:38:39.890Z,8.05
2022-12-10T06:41:10.284Z,7.95
2022-12-10T06:43:38.472Z,7.93
2022-12-10T06:46:23.863Z,7.91
2022-12-10T06:48:51.779Z,7.85
2022-12-10T06:51:19.421Z,7.78
2022-12-10T06:53:47.636Z,7.74
2022-12-10T06:56:18.753Z,7.71
2022-12-10T06:58:47.559Z,7.71
2022-12-10T07:01:21.417Z,7.71
2022-12-10T07:03:54.142Z,7.66
2022-12-10T07:06:22.931Z,7.68
2022-12-10T07:08:51.274Z,7.73
2022-12-10T07:11:22.682Z,7.65
2022-12-10T07:13:51.141Z,7.68
2022-12-10T07:16:27.271Z,7.66
2022-12-10T07:18:56.826Z,7.60
2022-12-10T07:21:27.050Z,7.58
2022-12-10T07:23:58.983Z,7.54
2022-12-10T07:26:29.516Z,7.49
2022-12-10T07:28:58.838Z,7.46
2022-12-10T07:31:26.977Z,7.50
2022-12-10T07:33:55.378Z,7.49
2022-12-10T07:36:23.797Z,7.50
2022-12-10T07:38:52.491Z,7.52
2022-12-10T07:41:20.652Z,7.53
2022-12-10T07:43:48.584Z,7.43
2022-12-10T07:46:19.161Z,7.39
2022-12-10T07:48:48.284Z,7.32
2022-12-10T07:51:17.440Z,7.25
2022-12-10T07:53:44.996Z,7.18
2022-12-10T07:56:13.017Z,7.17
2022-12-10T07:58:45.800Z,7.13
2022-12-10T08:01:16.438Z,9.94
2022-12-10T08:03:44.859Z,11.74
2022-12-10T08:06:17.849Z,12.52
2022-12-10T08:08:46.133Z,12.73
2022-12-10T08:11:15.440Z,12.43
2022-12-10T08:13:43.256Z,11.25
2022-12-10T08:16:15.802Z,10.52
2022-12-10T08:18:44.951Z,10.02
2022-12-10T08:21:16.085Z,9.51
2022-12-10T08:23:45.324Z,9.26
2022-12-10T08:26:17.045Z,9.01
2022-12-10T08:28:45.035Z,8.75
2022-12-10T08:31:14.816Z,8.59
2022-12-10T08:33:42.571Z,8.45
2022-12-10T08:36:13.516Z,8.36
2022-12-10T08:38:42.061Z,8.29
2022-12-10T08:41:12.326Z,8.23
2022-12-10T08:43:40.496Z,8.06
2022-12-10T08:46:08.849Z,7.90
2022-12-10T08:48:37.055Z,7.89
2022-12-10T08:51:05.890Z,7.91
2022-12-10T08:53:34.585Z,7.90
2022-12-10T08:56:02.066Z,7.84
2022-12-10T08:58:29.582Z,7.78
2022-12-10T09:00:57.423Z,7.76
2022-12-10T09:03:25.115Z,7.81
2022-12-10T09:05:52.646Z,7.83
2022-12-10T09:08:20.820Z,7.83
2022-12-10T09:10:48.385Z,7.64
2022-12-10T09:13:15.830Z,7.59
2022-12-10T09:15:50.662Z,7.55
2022-12-10T09:18:18.255Z,7.46
2022-12-10T09:20:46.056Z,7.45
2022-12-10T09:23:13.551Z,7.36
2022-12-10T09:25:41.011Z,7.28
2022-12-10T09:28:09.003Z,7.25
2022-12-10T09:30:36.527Z,7.25
2022-12-10T09:33:04.261Z,7.23
2022-12-10T09:35:32.218Z,7.24
2022-12-10T09:37:59.810Z,7.19
2022-12-10T09:41:11.901Z,7.14
2022-12-10T09:43:49.851Z,7.14
2022-12-10T09:46:37.561Z,7.18
2022-12-10T09:49:24.784Z,7.18
2022-12-10T09:51:56.403Z,7.15
2022-12-10T09:54:27.906Z,7.12
2022-12-10T09:56:58.199Z,7.14
2022-12-10T09:59:34.974Z,7.17
2022-12-10T10:02:20.925Z,7.21
2022-12-10T10:04:51.443Z,7.18
2022-12-10T10:07:25.765Z,7.19
2022-12-10T10:09:59.623Z,7.18
2022-12-10T10:12:29.615Z,7.26
2022-12-10T10:14:57.601Z,7.25
2022-12-10T10:17:34.547Z,7.25
2022-12-10T10:20:02.650Z,7.30
2022-12-10T10:22:31.166Z,7.33
2022-12-10T10:24:59.543Z,7.29
2022-12-10T10:27:31.439Z,7.25
2022-12-10T10:30:02.276Z,7.22
2022-12-10T10:32:51.733Z,7.21
2022-12-10T10:35:22.120Z,7.16
2022-12-10T10:37:50.184Z,7.14
2022-12-10T10:40:27.160Z,7.12
2022-12-10T10:42:58.094Z,7.05
2022-12-10T10:45:33.740Z,6.98
2022-12-10T10:48:28.234Z,6.94
2022-12-10T10:51:06.519Z,6.98
2022-12-10T10:53:44.825Z,6.99
2022-12-10T10:56:44.584Z,7.03
2022-12-10T10:59:16.879Z,7.05
2022-12-10T11:01:47.795Z,7.03
2022-12-10T11:04:18.246Z,6.97
2022-12-10T11:06:46.421Z,6.86
2022-12-10T11:09:23.019Z,6.83
2022-12-10T11:11:58.280Z,6.82
2022-12-10T11:14:33.956Z,6.86
2022-12-10T11:17:12.121Z,6.87
2022-12-10T11:19:54.183Z,6.87
2022-12-10T11:22:29.314Z,6.80
2022-12-10T11:24:58.135Z,6.79
2022-12-10T11:27:34.930Z,6.81
2022-12-10T11:30:14.521Z,6.81
2022-12-10T11:33:19.526Z,6.73
2022-12-10T11:35:56.691Z,6.64
2022-12-10T11:38:43.799Z,6.55
2022-12-10T11:41:23.786Z,6.54
2022-12-10T11:44:17.415Z,6.50
2022-12-10T11:47:19.059Z,6.60
2022-12-10T11:49:55.577Z,6.63
2022-12-10T11:52:46.481Z,6.59
2022-12-10T11:55:39.788Z,6.57
2022-12-10T11:58:36.119Z,6.52
2022-12-10T12:01:28.227Z,6.47
2022-12-10T12:04:05.108Z,6.47
2022-12-10T12:06:39.890Z,6.52
2022-12-10T12:09:21.669Z,6.46
2022-12-10T12:12:05.033Z,6.44
2022-12-10T12:14:55.562Z,6.46
2022-12-10T12:17:38.116Z,6.52
2022-12-10T12:20:18.880Z,6.59
2022-12-10T12:22:52.980Z,6.61
2022-12-10T12:25:36.167Z,6.63
2022-12-10T12:28:16.911Z,6.71
2022-12-10T12:30:48.298Z,6.62
2022-12-10T12:33:55.282Z,6.66
2022-12-10T12:36:29.343Z,6.62
2022-12-10T12:39:13.398Z,6.57
2022-12-10T12:42:03.182Z,6.54
2022-12-10T12:45:02.490Z,6.53
2022-12-10T12:47:30.287Z,6.45
2022-12-10T12:49:59.923Z,6.41
2022-12-10T12:52:40.875Z,6.26
2022-12-10T12:55:38.400Z,6.21
2022-12-10T12:58:12.079Z,6.22
2022-12-10T13:00:43.800Z,6.20
2022-12-10T13:03:32.917Z,6.18
2022-12-10T13:06:35.107Z,6.08
2022-12-10T13:09:14.410Z,5.99
2022-12-10T13:11:44.423Z,5.83
2022-12-10T13:14:31.867Z,5.84
2022-12-10T13:17:03.403Z,5.74
2022-12-10T13:19:31.981Z,5.68
2022-12-10T13:22:13.247Z,5.64
2022-12-10T13:24:46.641Z,5.61
2022-12-10T13:27:20.626Z,5.55
2022-12-10T13:29:48.043Z,5.57
2022-12-10T13:32:35.946Z,5.48
2022-12-10T13:35:31.140Z,5.59
2022-12-10T13:38:20.753Z,5.52
2022-12-10T13:41:18.883Z,5.48
2022-12-10T13:44:13.597Z,5.55
2022-12-10T13:47:05.421Z,5.55
2022-12-10T13:50:04.317Z,5.57
2022-12-10T13:52:50.372Z,5.65
2022-12-10T13:55:21.891Z,5.67
2022-12-10T13:57:54.639Z,5.60
2022-12-10T14:00:30.373Z,5.63
2022-12-10T14:03:20.314Z,5.54
2022-12-10T14:06:06.015Z,5.60
2022-12-10T14:08:38.908Z,5.63
2022-12-10T14:11:11.187Z,5.53
2022-12-10T14:13:50.992Z,5.53
2022-12-10T14:16:21.604Z,5.49
2022-12-10T14:18:56.636Z,5.43
2022-12-10T14:21:25.691Z,5.42
2022-12-10T14:23:56.370Z,5.39
2022-12-10T14:26:36.996Z,5.45
2022-12-10T14:29:07.511Z,5.39
2022-12-10T14:31:39.957Z,5.35
2022-12-10T14:34:09.915Z,5.27
2022-12-10T14:36:46.979Z,5.28
2022-12-10T14:39:20.668Z,5.28
2022-12-10T14:41:51.772Z,5.28
2022-12-10T14:44:20.402Z,5.17
2022-12-10T14:46:49.565Z,5.04
2022-12-10T14:49:21.613Z,4.98
2022-12-10T14:51:49.589Z,4.90
2022-12-10T14:54:29.655Z,4.89
2022-12-10T14:56:59.746Z,4.88
2022-12-10T14:59:43.768Z,4.80
2022-12-10T15:02:29.624Z,4.84
2022-12-10T15:04:58.302Z,4.81
2022-12-10T15:07:37.907Z,4.71
2022-12-10T15:10:14.813Z,4.74
2022-12-10T15:12:47.779Z,4.72
2022-12-10T15:15:41.607Z,4.75
2022-12-10T15:18:09.938Z,4.78
2022-12-10T15:20:38.926Z,4.76
2022-12-10T15:23:29.369Z,4.80
2022-12-10T15:26:15.339Z,4.78
2022-12-10T15:28:43.642Z,4.82
2022-12-10T15:31:17.076Z,4.83
2022-12-10T15:34:03.165Z,4.77
2022-12-10T15:36:41.414Z,4.75
2022-12-10T15:39:11.822Z,4.79
2022-12-10T15:41:53.134Z,4.74
2022-12-10T15:44:41.327Z,4.72
2022-12-10T15:47:20.750Z,4.73
2022-12-10T15:49:50.725Z,4.72
2022-12-10T15:52:25.414Z,4.75
2022-12-10T15:54:54.864Z,4.79
2022-12-10T15:57:30.311Z,4.68
2022-12-10T16:00:05.035Z,4.79
2022-12-10T16:02:44.952Z,4.77
2022-12-10T16:05:12.678Z,4.79
2022-12-10T16:07:40.536Z,4.79
2022-12-10T16:10:10.254Z,4.82
2022-12-10T16:12:40.689Z,4.68
2022-12-10T16:15:16.170Z,4.76
2022-12-10T16:17:43.924Z,4.76
2022-12-10T16:20:26.940Z,4.71
2022-12-10T16:22:56.510Z,4.69
2022-12-10T16:25:26.706Z,4.75
2022-12-10T16:27:54.611Z,4.70
2022-12-10T16:30:33.216Z,4.67
2022-12-10T16:33:04.635Z,4.69
2022-12-10T16:35:32.858Z,4.72
2022-12-10T16:38:03.468Z,4.74
2022-12-10T16:40:34.911Z,4.77
2022-12-10T16:43:02.474Z,4.71
2022-12-10T16:45:38.083Z,4.75
2022-12-10T16:48:06.189Z,4.67
2022-12-10T16:50:34.650Z,4.61
2022-12-10T16:53:24.547Z,4.68
2022-12-10T16:55:52.741Z,4.50
2022-12-10T16:58:20.445Z,4.50
2022-12-10T17:00:50.150Z,4.43
2022-12-10T17:03:24.359Z,4.39
2022-12-10T17:06:07.166Z,4.35
2022-12-10T17:08:34.922Z,4.43
2022-12-10T17:11:20.996Z,4.46
2022-12-10T17:13:49.141Z,4.43
2022-12-10T17:16:22.033Z,4.35
2022-12-10T17:18:50.079Z,4.43
2022-12-10T17:21:17.606Z,4.43
2022-12-10T17:23:45.081Z,4.41
2022-12-10T17:26:25.244Z,4.43
2022-12-10T17:28:53.379Z,4.37
2022-12-10T17:31:22.548Z,4.47
2022-12-10T17:33:52.058Z,4.30
2022-12-10T17:36:19.941Z,4.33
2022-12-10T17:38:47.610Z,4.44
2022-12-10T17:41:16.720Z,4.42
2022-12-10T17:43:44.223Z,4.36
2022-12-10T17:46:13.073Z,4.37
2022-12-10T17:48:41.419Z,4.33
2022-12-10T17:51:12.146Z,4.33
2022-12-10T17:53:40.843Z,4.24
2022-12-10T17:56:30.783Z,4.21
2022-12-10T17:58:59.199Z,4.14
2022-12-10T18:01:27.483Z,4.21
2022-12-10T18:03:55.775Z,4.30
2022-12-10T18:06:27.544Z,4.28
2022-12-10T18:08:57.428Z,4.27
2022-12-10T18:11:33.939Z,4.34
2022-12-10T18:14:02.025Z,4.39
2022-12-10T18:16:33.045Z,4.31
2022-12-10T18:19:03.826Z,4.41
2022-12-10T18:21:31.539Z,4.43
2022-12-10T18:23:58.958Z,4.41
2022-12-10T18:26:27.210Z,4.46
2022-12-10T18:29:00.168Z,4.52
2022-12-10T18:31:33.812Z,4.48
2022-12-10T18:34:07.607Z,4.46
2022-12-10T18:36:38.090Z,4.52
2022-12-10T18:39:29.433Z,4.49
2022-12-10T18:41:56.937Z,4.49
2022-12-10T18:44:26.866Z,4.44
2022-12-10T18:46:56.901Z,4.51
2022-12-10T18:49:25.380Z,4.32
2022-12-10T18:51:52.854Z,4.35
2022-12-10T18:54:21.563Z,4.32
2022-12-10T18:57:03.637Z,4.38
2022-12-10T18:59:37.063Z,4.44
2022-12-10T19:02:05.142Z,4.48
2022-12-10T19:04:32.632Z,4.45
2022-12-10T19:07:00.209Z,4.45
2022-12-10T19:09:32.360Z,4.48
2022-12-10T19:12:00.232Z,4.49
2022-12-10T19:14:27.958Z,4.50
2022-12-10T19:16:55.403Z,4.55
2022-12-10T19:19:22.815Z,4.57
2022-12-10T19:21:50.592Z,4.53
2022-12-10T19:24:18.038Z,4.60
2022-12-10T19:26:45.677Z,4.56
2022-12-10T19:29:19.866Z,4.51
2022-12-10T19:31:47.755Z,4.51
2022-12-10T19:34:17.545Z,4.57
2022-12-10T19:36:46.079Z,4.58
2022-12-10T19:39:20.926Z,4.47
2022-12-10T19:41:49.597Z,4.52
2022-12-10T19:44:17.373Z,4.38
2022-12-10T19:46:45.531Z,4.35
2022-12-10T19:49:14.958Z,4.30
2022-12-10T19:51:43.375Z,4.27
2022-12-10T19:54:11.374Z,4.23
2022-12-10T19:56:39.771Z,4.25
2022-12-10T19:59:15.110Z,4.20
2022-12-10T20:01:44.367Z,4.14
2022-12-10T20:04:14.674Z,4.11
2022-12-10T20:06:44.271Z,4.17
2022-12-10T20:09:19.727Z,4.13
2022-12-10T20:11:47.783Z,4.07
2022-12-10T20:14:16.498Z,4.05
2022-12-10T20:16:44.162Z,4.00
2022-12-10T20:19:14.350Z,3.96
2022-12-10T20:21:42.122Z,3.91
2022-12-10T20:24:09.755Z,3.96
2022-12-10T20:26:40.099Z,3.97
2022-12-10T20:29:17.973Z,3.94
2022-12-10T20:31:47.084Z,3.93
2022-12-10T20:34:15.186Z,3.93
2022-12-10T20:36:42.820Z,3.89
2022-12-10T20:39:25.313Z,3.95
2022-12-10T20:41:53.924Z,3.93
2022-12-10T20:44:22.486Z,3.83
2022-12-10T20:46:51.697Z,3.76
2022-12-10T20:49:21.167Z,3.84
2022-12-10T20:51:49.432Z,3.77
2022-12-10T20:54:17.008Z,3.77
2022-12-10T20:56:44.996Z,3.84
2022-12-10T20:59:17.419Z,3.83
2022-12-10T21:01:45.352Z,3.88
2022-12-10T21:04:13.376Z,3.84
2022-12-10T21:06:43.252Z,3.88
2022-12-10T21:09:12.547Z,3.81
2022-12-10T21:11:40.206Z,3.80
2022-12-10T21:14:18.506Z,3.89
2022-12-10T21:16:55.524Z,3.87
2022-12-10T21:19:22.987Z,3.86
2022-12-10T21:21:50.553Z,3.79
2022-12-10T21:24:18.687Z,3.78
2022-12-10T21:26:46.129Z,3.77
2022-12-10T21:29:14.611Z,3.79
2022-12-10T21:31:43.046Z,3.80
2022-12-10T21:34:10.548Z,3.76
2022-12-10T21:36:38.100Z,3.69
2022-12-10T21:39:05.904Z,3.64
2022-12-10T21:41:52.495Z,3.60
2022-12-10T21:44:20.287Z,3.55
2022-12-10T21:46:47.818Z,3.60
2022-12-10T21:49:15.562Z,3.62
2022-12-10T21:51:43.459Z,3.60
2022-12-10T21:54:10.951Z,3.55
2022-12-10T21:56:38.371Z,3.45
2022-12-10T21:59:06.207Z,3.54
2022-12-10T22:01:33.802Z,3.48
2022-12-10T22:04:01.536Z,3.50
2022-12-10T22:06:29.791Z,3.49
2022-12-10T22:08:58.514Z,3.44
2022-12-10T22:11:26.584Z,3.42
2022-12-10T22:13:55.242Z,3.39
2022-12-10T22:16:23.181Z,3.34
2022-12-10T22:18:51.061Z,3.43
2022-12-10T22:21:23.516Z,3.36
2022-12-10T22:23:55.487Z,3.35
2022-12-10T22:26:23.593Z,3.29
2022-12-10T22:28:51.847Z,3.31
2022-12-10T22:31:20.000Z,3.37
2022-12-10T22:33:47.663Z,3.34
2022-12-10T22:36:15.601Z,3.32
2022-12-10T22:38:43.784Z,3.25
2022-12-10T22:41:12.004Z,3.31
2022-12-10T22:43:55.056Z,3.34
2022-12-10T22:46:22.675Z,3.38
2022-12-10T22:48:50.570Z,3.33
2022-12-10T22:51:18.003Z,3.32
2022-12-10T22:53:45.516Z,3.27
2022-12-10T22:56:21.513Z,3.18
2022-12-10T22:58:53.379Z,3.13
2022-12-10T23:01:22.405Z,3.12
2022-12-10T23:03:51.565Z,3.15
2022-12-10T23:06:19.793Z,3.10
2022-12-10T23:08:47.772Z,3.16
2022-12-10T23:11:16.323Z,3.15
2022-12-10T23:13:44.270Z,3.14
2022-12-10T23:16:15.228Z,3.08
2022-12-10T23:18:43.972Z,3.07
2022-12-10T23:21:18.301Z,3.11
2022-12-10T23:23:45.806Z,3.01
2022-12-10T23:26:13.905Z,2.98
2022-12-10T23:28:41.367Z,3.02
2022-12-10T23:31:10.988Z,3.05
2022-12-10T23:33:38.884Z,2.96
2022-12-10T23:36:09.087Z,2.92
2022-12-10T23:38:37.742Z,2.92
2022-12-10T23:41:09.987Z,2.84
2022-12-10T23:43:38.456Z,2.69
2022-12-10T23:46:07.070Z,2.65
2022-12-10T23:48:34.837Z,2.61
2022-12-10T23:51:02.438Z,2.62
2022-12-10T23:53:30.305Z,2.61
2022-12-10T23:55:57.841Z,2.52
2022-12-10T23:58:25.678Z,2.53
